Time,TemperatureF,DewpointF,PressureIn,WindDirection,WindDirectionDegrees,WindSpeedMPH,WindSpeedGustMPH,Humidity,HourlyPrecipIn,Conditions,Clouds,dailyrainin,SoftwareType,DateUTC
2013-05-27 00:00:00,43.9,40.6,29.99,NW,324,0.0,8.0,88,0.00,,,0.00,Wunderground v.1.15,2013-05-27 07:00:00,
2013-05-27 00:30:00,44.4,41.1,29.98,WNW,302,0.0,8.0,88,0.00,,,0.00,Wunderground v.1.15,2013-05-27 07:30:00,
2013-05-27 01:00:00,49.8,42.5,29.97,WNW,293,1.0,8.0,76,0.00,,,0.00,Wunderground v.1.15,2013-05-27 08:00:00,
2013-05-27 01:30:00,47.6,42.4,29.96,NNE,25,0.0,8.0,82,0.00,,,0.00,Wunderground v.1.15,2013-05-27 08:30:00,
2013-05-27 02:00:00,46.1,42.1,29.96,NW,315,0.0,8.0,86,0.00,,,0.00,Wunderground v.1.15,2013-05-27 09:00:00,
2013-05-27 02:30:00,45.7,41.8,29.95,WNW,290,0.0,8.0,86,0.00,,,0.00,Wunderground v.1.15,2013-05-27 09:30:00,
2013-05-27 03:00:00,44.7,40.8,29.94,WNW,303,0.0,8.0,86,0.00,,,0.00,Wunderground v.1.15,2013-05-27 10:00:00,
2013-05-27 03:30:00,43.2,39.6,29.94,WNW,303,0.0,8.0,87,0.00,,,0.00,Wunderground v.1.15,2013-05-27 10:30:00,
2013-05-27 04:00:00,41.3,37.7,29.93,NNW,340,0.0,8.0,87,0.00,,,0.00,Wunderground v.1.15,2013-05-27 11:00:00,
2013-05-27 04:30:00,39.9,36.6,29.92,NNE,16,0.0,8.0,88,0.00,,,0.00,Wunderground v.1.15,2013-05-27 11:30:00,
2013-05-27 05:00:00,38.5,35.5,29.91,NNE,25,0.0,8.0,89,0.00,,,0.00,Wunderground v.1.15,2013-05-27 12:00:00,
2013-05-27 05:30:00,37.8,35.1,29.91,NNE,30,0.0,8.0,90,0.00,,,0.00,Wunderground v.1.15,2013-05-27 12:30:00,
2013-05-27 06:00:00,37.5,34.3,29.91,East,82,0.0,8.0,88,0.00,,,0.00,Wunderground v.1.15,2013-05-27 13:00:00,
2013-05-27 06:30:00,39.3,34.9,29.90,East,87,0.0,8.0,84,0.00,,,0.00,Wunderground v.1.15,2013-05-27 13:30:00,
2013-05-27 07:00:00,43.2,36.1,29.90,East,85,0.0,8.0,76,0.00,,,0.00,Wunderground v.1.15,2013-05-27 14:00:00,
2013-05-27 07:30:00,49.3,42.1,29.91,East,85,0.0,8.0,76,0.00,,,0.00,Wunderground v.1.15,2013-05-27 14:30:00,
2013-05-27 08:00:00,52.6,39.5,29.92,WNW,285,2.0,8.0,61,0.00,,,0.00,Wunderground v.1.15,2013-05-27 15:00:00,
2013-05-27 08:30:00,55.5,39.1,29.92,WNW,284,1.0,8.0,54,0.00,,,0.00,Wunderground v.1.15,2013-05-27 15:30:00,
2013-05-27 09:00:00,56.0,42.7,29.91,West,274,1.0,8.0,61,0.00,,,0.00,Wunderground v.1.15,2013-05-27 16:00:00,
2013-05-27 09:30:00,57.7,43.5,29.92,WNW,286,2.0,8.0,59,0.00,,,0.00,Wunderground v.1.15,2013-05-27 16:30:00,
2013-05-27 10:00:00,59.3,44.5,29.91,SSW,209,2.0,8.0,58,0.00,,,0.00,Wunderground v.1.15,2013-05-27 17:00:00,
2013-05-27 10:30:00,61.3,43.0,29.91,WNW,298,3.0,8.0,51,0.00,,,0.00,Wunderground v.1.15,2013-05-27 17:30:00,
2013-05-27 11:00:00,61.6,45.7,29.91,WNW,298,3.0,8.0,56,0.00,,,0.00,Wunderground v.1.15,2013-05-27 18:00:00,
2013-05-27 11:30:00,62.4,46.5,29.91,West,273,3.0,3.0,56,0.00,,,0.00,Wunderground v.1.15,2013-05-27 18:30:00,
2013-05-27 12:00:00,64.4,45.9,29.91,WNW,291,2.0,8.0,51,0.00,,,0.00,Wunderground v.1.15,2013-05-27 19:00:00,
2013-05-27 12:30:00,66.2,46.5,29.91,WNW,292,3.0,8.0,49,0.00,,,0.00,Wunderground v.1.15,2013-05-27 19:30:00,
2013-05-27 13:00:00,67.1,46.7,29.91,WNW,302,3.0,8.0,48,0.00,,,0.00,Wunderground v.1.15,2013-05-27 20:00:00,
2013-05-27 13:30:00,67.6,45.5,29.90,WNW,283,3.0,8.0,45,0.00,,,0.00,Wunderground v.1.15,2013-05-27 20:30:00,
2013-05-27 14:00:00,69.0,44.9,29.89,West,271,3.0,8.0,42,0.00,,,0.00,Wunderground v.1.15,2013-05-27 21:00:00,
2013-05-27 14:30:00,71.0,44.1,29.88,SW,232,3.0,3.0,38,0.00,,,0.00,Wunderground v.1.15,2013-05-27 21:30:00,
2013-05-27 15:00:00,71.7,44.7,29.87,WNW,292,3.0,8.0,38,0.00,,,0.00,Wunderground v.1.15,2013-05-27 22:00:00,
2013-05-27 15:30:00,72.0,45.7,29.87,WNW,291,3.0,8.0,39,0.00,,,0.00,Wunderground v.1.15,2013-05-27 22:30:00,
2013-05-27 16:00:00,71.4,45.8,29.86,WNW,285,4.0,8.0,40,0.00,,,0.00,Wunderground v.1.15,2013-05-27 23:00:00,
2013-05-27 16:30:00,70.9,46.7,29.85,WNW,303,3.0,8.0,42,0.00,,,0.00,Wunderground v.1.15,2013-05-27 23:30:00,
2013-05-27 17:00:00,68.8,48.9,29.86,NW,317,6.0,8.0,49,0.00,,,0.00,Wunderground v.1.15,2013-05-28 00:00:00,
2013-05-27 17:30:00,66.0,49.4,29.85,NW,311,4.0,8.0,55,0.00,,,0.00,Wunderground v.1.15,2013-05-28 00:30:00,
2013-05-27 17:59:00,65.6,50.0,29.84,NW,314,4.0,4.0,57,0.00,,,0.00,Wunderground v.1.15,2013-05-28 00:59:00,
2013-05-27 18:29:00,62.2,49.9,29.85,WNW,290,5.0,8.0,64,0.00,,,0.00,Wunderground v.1.15,2013-05-28 01:29:00,
2013-05-27 18:59:00,58.5,49.5,29.84,NW,307,3.0,3.0,72,0.00,,,0.00,Wunderground v.1.15,2013-05-28 01:59:00,
2013-05-27 19:29:00,57.3,49.4,29.84,WNW,288,0.0,8.0,75,0.00,,,0.00,Wunderground v.1.15,2013-05-28 02:29:00,
2013-05-27 19:59:00,55.5,49.1,29.85,WNW,292,1.0,1.0,79,0.00,,,0.00,Wunderground v.1.15,2013-05-28 02:59:00,
2013-05-27 20:29:00,54.6,48.9,29.85,NW,311,0.0,8.0,81,0.00,,,0.00,Wunderground v.1.15,2013-05-28 03:29:00,
2013-05-27 20:59:00,53.1,48.4,29.86,WNW,294,0.0,8.0,84,0.00,,,0.00,Wunderground v.1.15,2013-05-28 03:59:00,
2013-05-27 21:29:00,52.0,48.3,29.84,East,96,0.0,8.0,87,0.00,,,0.00,Wunderground v.1.15,2013-05-28 04:29:00,
2013-05-27 22:00:00,50.8,47.4,29.86,East,94,0.0,8.0,88,0.00,,,0.00,Wunderground v.1.15,2013-05-28 05:00:00,
2013-05-27 22:30:00,48.9,45.5,29.86,East,94,0.0,8.0,88,0.00,,,0.00,Wunderground v.1.15,2013-05-28 05:30:00,
2013-05-27 23:00:00,47.2,43.5,29.86,East,93,0.0,8.0,87,0.00,,,0.00,Wunderground v.1.15,2013-05-28 06:00:00,
2013-05-27 23:30:00,47.2,43.8,29.85,East,93,0.0,8.0,88,0.00,,,0.00,Wunderground v.1.15,2013-05-28 06:30:00,